Time;durP1;ratioP1;P1;durP2;ratioP2;P2;SDS_P1;SDS_P2;PMS_P1;PMS_P2;Temp;Humidity;BMP_temperature;BMP_pressure;BME280_temperature;BME280_humidity;BME280_pressure;Samples;Min_cycle;Max_cycle;Signal;HPM_P1;HPM_P2
2022/05/01 00:03:39;;;;;;;16.90;15.07;;;12.10;99.90;;;;;;20924074;28;20208;-70
2022/05/01 00:13:43;;;;;;;16.47;13.60;;;12.10;99.90;;;;;;20991580;28;20283;-69
2022/05/01 00:23:45;;;;;;;22.00;15.80;;;12.00;99.90;;;;;;21002332;28;20232;-63
2022/05/01 00:44:12;;;;;;;13.80;12.10;;;12.10;99.90;;;;;;20999869;28;20212;-70
2022/05/01 00:54:17;;;;;;;15.30;12.60;;;12.00;99.90;;;;;;20999857;28;20239;-69
2022/05/01 01:04:19;;;;;;;13.20;11.50;;;12.00;99.90;;;;;;20999217;28;20679;-69
2022/05/01 01:14:24;;;;;;;15.37;13.57;;;12.00;99.90;;;;;;20997881;28;20250;-69
2022/05/01 01:24:27;;;;;;;20.87;15.30;;;11.80;99.90;;;;;;20997535;28;20223;-70
2022/05/01 01:34:35;;;;;;;17.03;13.30;;;11.80;99.90;;;;;;20997048;28;20235;-68
2022/05/01 01:44:38;;;;;;;17.00;14.10;;;11.80;99.90;;;;;;20996158;28;20614;-68
2022/05/01 01:54:39;;;;;;;15.23;12.27;;;11.70;99.90;;;;;;20995378;28;20246;-69
2022/05/01 02:04:41;;;;;;;17.73;13.10;;;11.70;99.90;;;;;;20995380;28;20209;-69
2022/05/01 02:14:43;;;;;;;18.03;13.03;;;11.60;99.90;;;;;;20989200;28;20269;-70
2022/05/01 02:24:44;;;;;;;19.13;13.50;;;11.60;99.90;;;;;;20994374;28;20203;-64
2022/05/01 02:34:46;;;;;;;20.20;13.97;;;11.60;99.90;;;;;;20994448;28;20629;-69
2022/05/01 02:44:48;;;;;;;15.80;13.33;;;11.40;99.90;;;;;;20993538;28;20232;-69
2022/05/01 02:54:49;;;;;;;18.70;13.10;;;11.40;99.90;;;;;;20993355;28;20242;-70
2022/05/01 03:04:51;;;;;;;15.97;12.80;;;11.50;99.50;;;;;;21000539;28;20218;-69
2022/05/01 03:14:52;;;;;;;17.83;12.83;;;11.40;99.40;;;;;;21007267;28;20247;-71
2022/05/01 03:24:54;;;;;;;18.77;14.00;;;11.30;99.30;;;;;;21006941;28;20261;-70
2022/05/01 03:34:56;;;;;;;22.90;14.67;;;11.40;99.70;;;;;;21006418;28;20713;-69
2022/05/01 03:44:58;;;;;;;21.17;14.17;;;11.40;99.30;;;;;;21005347;28;20234;-70
2022/05/01 03:55:00;;;;;;;16.73;13.67;;;11.30;99.10;;;;;;21004719;28;20598;-68
2022/05/01 04:05:10;;;;;;;17.43;13.07;;;11.20;99.40;;;;;;21004370;28;20203;-65
2022/05/01 04:15:14;;;;;;;18.17;13.87;;;11.20;99.40;;;;;;20948166;28;20258;-68
2022/05/01 04:25:21;;;;;;;20.80;13.87;;;11.20;99.50;;;;;;20926601;28;20204;-67
2022/05/01 04:35:25;;;;;;;17.60;13.40;;;11.20;99.80;;;;;;20919618;28;20244;-66
2022/05/01 04:45:31;;;;;;;16.93;12.90;;;11.20;99.10;;;;;;20917823;28;20207;-66
2022/05/01 04:55:33;;;;;;;18.23;12.63;;;11.20;99.00;;;;;;20917139;28;20227;-66
2022/05/01 05:05:35;;;;;;;18.47;13.40;;;11.20;98.90;;;;;;20916988;28;20200;-66
2022/05/01 05:15:36;;;;;;;15.07;11.23;;;11.40;98.90;;;;;;20915649;28;20247;-69
2022/05/01 05:25:38;;;;;;;18.60;11.40;;;11.50;98.70;;;;;;20915654;28;20212;-66
2022/05/01 05:35:40;;;;;;;16.17;11.93;;;11.50;98.70;;;;;;20917711;28;20305;-65
2022/05/01 05:45:41;;;;;;;14.50;11.00;;;11.80;98.20;;;;;;20914384;28;20705;-64
2022/05/01 05:55:45;;;;;;;16.63;10.87;;;11.90;98.00;;;;;;20912740;28;20638;-68
2022/05/01 06:05:47;;;;;;;14.13;10.83;;;11.90;97.90;;;;;;20912669;28;20215;-72
2022/05/01 06:15:49;;;;;;;14.23;10.97;;;11.90;97.40;;;;;;20963434;28;20239;-68
2022/05/01 06:25:51;;;;;;;16.33;11.43;;;11.90;97.10;;;;;;20926850;28;20241;-65
2022/05/01 06:35:54;;;;;;;17.30;11.33;;;11.90;97.10;;;;;;20962300;28;20233;-65
2022/05/01 06:45:55;;;;;;;13.90;10.00;;;12.00;97.00;;;;;;21011861;28;20207;-65
2022/05/01 06:55:57;;;;;;;15.60;10.50;;;12.20;97.00;;;;;;21009171;28;20236;-66
2022/05/01 07:06:02;;;;;;;13.47;10.17;;;12.30;97.00;;;;;;21008786;28;20208;-65
2022/05/01 07:16:05;;;;;;;17.40;11.03;;;12.60;96.70;;;;;;20928249;28;20231;-69
2022/05/01 07:26:07;;;;;;;17.27;11.33;;;12.80;96.40;;;;;;20924001;28;20238;-62
2022/05/01 07:36:09;;;;;;;14.10;10.33;;;13.00;96.50;;;;;;20923032;28;20238;-62
2022/05/01 07:46:11;;;;;;;14.63;10.27;;;13.00;96.00;;;;;;20919117;28;20211;-63
2022/05/01 07:56:13;;;;;;;15.63;10.47;;;13.20;95.80;;;;;;20922087;28;20263;-64
2022/05/01 08:06:15;;;;;;;13.57;9.50;;;13.30;96.00;;;;;;20919796;28;20202;-67
2022/05/01 08:16:17;;;;;;;14.47;9.67;;;13.60;94.90;;;;;;20915644;28;20249;-65
2022/05/01 08:26:21;;;;;;;13.73;9.13;;;14.00;94.70;;;;;;21033067;28;20206;-67
2022/05/01 08:36:24;;;;;;;14.20;9.57;;;14.40;93.80;;;;;;21085093;28;20245;-66
2022/05/01 08:46:38;;;;;;;13.80;8.77;;;14.60;93.60;;;;;;21088690;28;20213;-67
2022/05/01 08:56:43;;;;;;;13.47;9.27;;;15.00;92.30;;;;;;21114158;28;20649;-65
2022/05/01 09:06:45;;;;;;;12.90;9.50;;;15.40;91.90;;;;;;21091283;28;20199;-73
2022/05/01 09:17:09;;;;;;;13.50;9.77;;;15.60;91.60;;;;;;21087409;28;20321;-65
2022/05/01 09:27:31;;;;;;;14.10;9.60;;;15.80;90.30;;;;;;21081805;28;20210;-64
2022/05/01 09:37:33;;;;;;;15.17;10.30;;;16.00;88.60;;;;;;21081162;28;20742;-66
2022/05/01 09:47:36;;;;;;;15.10;10.57;;;16.20;88.10;;;;;;21080208;28;20212;-64
2022/05/01 09:57:38;;;;;;;14.20;10.83;;;16.20;87.50;;;;;;21077990;28;20234;-67
2022/05/01 10:07:40;;;;;;;17.97;11.47;;;16.40;85.80;;;;;;21078780;28;20209;-68
2022/05/01 10:17:43;;;;;;;17.17;11.67;;;16.50;86.00;;;;;;21078109;28;20245;-63
2022/05/01 10:28:12;;;;;;;13.67;11.37;;;16.70;84.30;;;;;;20935305;28;20203;-64
2022/05/01 10:38:28;;;;;;;14.83;10.50;;;16.80;85.30;;;;;;20910851;28;20235;-65
2022/05/01 10:48:38;;;;;;;18.47;11.97;;;16.90;84.10;;;;;;20910882;28;20211;-65
2022/05/01 10:58:40;;;;;;;20.03;13.57;;;16.70;82.70;;;;;;20910309;28;20239;-66
2022/05/01 11:08:43;;;;;;;17.90;13.47;;;17.00;81.10;;;;;;20915170;28;20204;-65
2022/05/01 11:18:47;;;;;;;16.17;13.37;;;17.20;80.10;;;;;;20925613;28;20304;-65
2022/05/01 11:28:51;;;;;;;18.33;13.30;;;17.20;80.00;;;;;;20921292;28;20570;-64
2022/05/01 11:38:53;;;;;;;19.60;13.17;;;17.60;78.10;;;;;;20923711;28;20287;-64
2022/05/01 11:49:05;;;;;;;17.60;13.67;;;17.60;78.20;;;;;;20922934;28;20656;-64
2022/05/01 12:09:29;;;;;;;15.70;13.17;;;17.80;77.90;;;;;;20920910;28;20207;-66
2022/05/01 12:19:39;;;;;;;15.87;12.47;;;18.20;77.70;;;;;;20918745;28;20245;-65
2022/05/01 12:29:52;;;;;;;15.73;12.37;;;18.90;76.00;;;;;;20916436;28;20278;-63
2022/05/01 12:40:09;;;;;;;19.17;12.73;;;18.70;74.60;;;;;;20918613;28;20293;-64
2022/05/01 12:50:32;;;;;;;18.17;12.37;;;18.80;74.00;;;;;;20917995;28;20214;-64
2022/05/01 13:00:41;;;;;;;17.43;13.37;;;18.80;73.30;;;;;;20917832;28;20700;-64
2022/05/01 13:11:04;;;;;;;18.83;13.53;;;18.80;72.70;;;;;;20917600;28;20279;-65
2022/05/01 13:21:06;;;;;;;21.40;12.23;;;18.90;72.70;;;;;;20915682;28;20273;-68
2022/05/01 13:31:08;;;;;;;14.50;11.47;;;19.10;72.60;;;;;;20979766;28;20255;-64
2022/05/01 13:51:31;;;;;;;14.83;11.33;;;19.80;69.40;;;;;;21001565;28;20231;-69
2022/05/01 14:01:33;;;;;;;10.87;9.20;;;19.90;68.90;;;;;;20996588;28;20619;-65
2022/05/01 14:11:35;;;;;;;13.13;10.00;;;23.00;62.70;;;;;;20995458;28;20214;-67
2022/05/01 14:21:39;;;;;;;11.93;9.40;;;22.90;62.80;;;;;;20989438;28;20297;-65
2022/05/01 14:32:03;;;;;;;12.40;9.13;;;23.20;60.00;;;;;;20979337;28;20712;-65
2022/05/01 14:42:13;;;;;;;9.80;8.60;;;22.30;58.50;;;;;;20992907;28;20242;-64
2022/05/01 14:52:16;;;;;;;13.13;8.57;;;23.10;55.50;;;;;;20993522;28;20731;-65
2022/05/01 15:12:46;;;;;;;13.23;9.27;;;23.30;54.70;;;;;;21011395;28;20250;-65
2022/05/01 15:22:59;;;;;;;12.40;8.67;;;24.10;53.50;;;;;;21007706;28;20243;-64
2022/05/01 15:43:31;;;;;;;9.83;7.40;;;22.00;52.50;;;;;;21006051;28;20329;-65
2022/05/01 15:53:39;;;;;;;8.93;7.40;;;20.90;52.80;;;;;;21005478;28;20204;-70
2022/05/01 16:03:41;;;;;;;8.23;6.80;;;20.80;52.90;;;;;;21004989;28;20231;-67
2022/05/01 16:14:15;;;;;;;8.93;7.13;;;22.80;50.80;;;;;;21003386;28;20259;-65
2022/05/01 16:24:23;;;;;;;11.33;9.00;;;22.90;50.10;;;;;;20999321;28;20239;-65
2022/05/01 16:34:54;;;;;;;22.03;6.87;;;23.60;50.10;;;;;;20998873;28;20207;-71
2022/05/01 16:44:58;;;;;;;18.93;7.93;;;23.90;51.40;;;;;;20993796;28;20207;-73
2022/05/01 16:55:00;;;;;;;7.03;6.10;;;22.70;52.60;;;;;;21001769;28;20211;-71
2022/05/01 17:05:12;;;;;;;10.40;7.07;;;22.70;53.40;;;;;;21004867;28;20219;-74
2022/05/01 17:15:27;;;;;;;10.13;7.23;;;22.60;53.30;;;;;;20995758;28;20239;-66
2022/05/01 17:25:39;;;;;;;12.40;7.50;;;21.50;54.00;;;;;;20997317;28;20642;-75
2022/05/01 17:35:44;;;;;;;13.60;7.43;;;20.30;55.20;;;;;;20996066;28;20228;-70
2022/05/01 17:46:13;;;;;;;10.23;7.10;;;19.60;55.90;;;;;;20996655;28;20640;-68
2022/05/01 17:56:15;;;;;;;8.70;5.67;;;19.00;56.30;;;;;;20994838;28;20698;-70
2022/05/01 18:17:04;;;;;;;9.77;6.20;;;18.50;58.80;;;;;;20937877;28;20243;-63
2022/05/01 18:27:14;;;;;;;7.40;5.90;;;18.00;60.00;;;;;;20954097;28;20209;-70
2022/05/01 18:37:22;;;;;;;6.60;5.90;;;17.50;61.70;;;;;;21006161;28;20588;-68
2022/05/01 18:47:26;;;;;;;7.90;6.43;;;17.20;63.50;;;;;;21010843;28;20208;-65
2022/05/01 18:57:29;;;;;;;8.10;6.63;;;16.90;65.20;;;;;;21007763;28;20236;-67
2022/05/01 19:07:52;;;;;;;7.33;6.63;;;16.70;66.00;;;;;;21007602;28;20202;-64
2022/05/01 19:18:10;;;;;;;9.93;6.97;;;16.60;66.80;;;;;;21007550;28;20238;-63
2022/05/01 19:28:23;;;;;;;7.97;6.20;;;16.50;67.80;;;;;;21005775;28;20217;-63
2022/05/01 19:38:41;;;;;;;9.37;6.80;;;16.20;70.00;;;;;;21004793;28;20731;-65
2022/05/01 19:59:22;;;;;;;8.77;6.80;;;16.10;72.60;;;;;;20996232;28;20278;-65
2022/05/01 20:09:27;;;;;;;7.57;6.67;;;15.90;73.70;;;;;;20919737;28;20206;-63
2022/05/01 20:19:50;;;;;;;7.27;6.57;;;15.90;75.00;;;;;;20992736;28;20253;-67
2022/05/01 20:30:00;;;;;;;12.40;6.40;;;15.90;75.80;;;;;;21084013;28;20200;-69
2022/05/01 20:40:11;;;;;;;8.37;7.30;;;15.70;77.20;;;;;;21082854;28;20383;-68
2022/05/01 20:50:13;;;;;;;14.97;7.10;;;15.50;79.00;;;;;;21081763;28;20694;-71
2022/05/01 21:00:17;;;;;;;8.97;7.50;;;15.40;81.00;;;;;;21080398;28;20271;-68
2022/05/01 21:10:23;;;;;;;8.37;6.70;;;15.20;83.00;;;;;;21080666;28;20220;-66
2022/05/01 21:20:25;;;;;;;9.50;7.40;;;15.10;83.80;;;;;;21080081;28;20588;-65
2022/05/01 21:40:48;;;;;;;13.37;9.63;;;14.80;85.90;;;;;;21077266;28;20324;-66
2022/05/01 21:50:49;;;;;;;10.43;7.57;;;14.70;87.40;;;;;;21077420;28;20202;-70
2022/05/01 22:00:54;;;;;;;10.23;7.73;;;14.80;88.30;;;;;;21077408;28;20295;-66
2022/05/01 22:10:56;;;;;;;10.90;7.93;;;14.80;88.60;;;;;;21076175;28;20657;-68
2022/05/01 22:20:58;;;;;;;11.23;7.47;;;14.70;89.20;;;;;;20999318;28;20330;-68
2022/05/01 22:31:01;;;;;;;12.93;8.00;;;14.60;90.00;;;;;;20910729;28;20209;-68
2022/05/01 22:41:04;;;;;;;10.50;8.53;;;14.50;90.50;;;;;;20984146;28;20698;-68
2022/05/01 22:51:06;;;;;;;10.57;7.90;;;14.50;90.90;;;;;;20993397;28;20203;-66
2022/05/01 23:01:09;;;;;;;8.60;7.67;;;14.30;91.40;;;;;;20990620;28;20231;-67
2022/05/01 23:11:11;;;;;;;12.87;7.83;;;14.30;91.70;;;;;;21059283;28;20216;-67
2022/05/01 23:21:13;;;;;;;8.87;7.90;;;14.30;92.10;;;;;;21080130;28;20767;-69
2022/05/01 23:31:15;;;;;;;10.60;8.40;;;14.10;92.50;;;;;;21090149;28;20208;-67
2022/05/01 23:41:17;;;;;;;9.00;8.00;;;13.80;93.10;;;;;;21089736;28;20708;-64
2022/05/01 23:51:18;;;;;;;13.77;9.00;;;13.60;93.40;;;;;;21089323;28;20233;-67
